This is the latest recevied weather packets stored in our database for station/object KC5TXI. If no packets are shown the sender has not sent any weather packets the latest 1 day(s).
| Time | Temp. | Humidity | Pressure | Rain* | Wind** | Luminosity | Snow |
|---|---|---|---|---|---|---|---|
| 1778085761 | 12.22° C | 93% | 1016.1 hPa | 0 mm | - | 53 W/m² | - |
| 1778085458 | 12.78° C | 93% | 1015.6 hPa | 0 mm | - | 98 W/m² | - |
| 1778084849 | 12.78° C | 93% | 1015.9 hPa | 0 mm | - | 73 W/m² | - |
| 1778083633 | 12.78° C | 94% | 1016.1 hPa | 0 mm | - | 157 W/m² | - |
| 1778080072 | 12.22° C | 90% | 1016.3 hPa | 8.38 mm | - | 52 W/m² | - |
| 1778079466 | 12.22° C | 88% | 1017.6 hPa | 0 mm | - | 13 W/m² | - |
| 1778078860 | 12.22° C | 86% | 1017.6 hPa | 0 mm | - | 25 W/m² | - |
| 1778077952 | 12.22° C | 85% | 1017.1 hPa | 0 mm | - | 14 W/m² | - |
| 1778077348 | 12.22° C | 85% | 1016.1 hPa | 0 mm | - | 34 W/m² | - |
| 1778077046 | 12.78° C | 85% | 1015.7 hPa | 0 mm | - | 42 W/m² | - |
| 1778076138 | 12.78° C | 85% | 1015.8 hPa | 0 mm | - | 43 W/m² | - |
| 1778074924 | 12.78° C | 83% | 1015.4 hPa | 0 mm | - | 39 W/m² | - |
| 1778073712 | 12.78° C | 82% | 1015.1 hPa | 0 mm | - | 41 W/m² | - |
| 1778073410 | 12.78° C | 82% | 1015.1 hPa | 0 mm | - | 47 W/m² | - |
| 1778069173 | 13.33° C | 79% | 1014.1 hPa | 0 mm | - | 6 W/m² | - |
| 1778068870 | 13.33° C | 78% | 1014.1 hPa | 0 mm | - | 5 W/m² | - |
| 1778067963 | 13.89° C | 78% | 1013.9 hPa | 0 mm | - | 0 W/m² | - |
| 1778067661 | 13.89° C | 78% | 1014 hPa | 0 mm | - | 0 W/m² | - |
| 1778067359 | 13.89° C | 78% | 1013.8 hPa | 0 mm | - | 0 W/m² | - |
| 1778067056 | 13.89° C | 78% | 1013.6 hPa | 0 mm | - | 0 W/m² | - |
| 1778066450 | 13.89° C | 79% | 1013.5 hPa | 0 mm | - | 0 W/m² | - |
| 1778066148 | 13.89° C | 79% | 1013.2 hPa | 0 mm | - | 0 W/m² | - |
| 1778065542 | 13.89° C | 78% | 1013.2 hPa | 0 mm | - | 0 W/m² | - |
| 1778064633 | 14.44° C | 79% | 1013 hPa | 0 mm | - | 0 W/m² | - |
| 1778064331 | 14.44° C | 79% | 1013 hPa | 0 mm | - | 0 W/m² | - |
* Rain latest hour (hover to see other rain measurements)
** Current wind speed in m/s (hover to see current wind gust speed)